createdAt,value
2019-02-25T15:34:09.027Z,5.20
2019-02-25T15:36:36.518Z,20.80
2019-02-25T15:39:05.001Z,20.90
2019-02-25T15:41:31.758Z,21.90
2019-02-25T15:44:02.117Z,20.80
2019-02-25T15:56:18.024Z,19.60
2019-02-25T15:58:47.179Z,17.70
2019-02-25T16:01:14.212Z,17.40
2019-02-25T16:03:42.878Z,17.30
2019-02-25T16:06:10.615Z,17.40
2019-02-25T16:25:53.189Z,16.80
2019-02-25T18:02:17.695Z,14.00
2019-02-25T18:04:44.846Z,7.80
2019-02-25T18:07:11.690Z,8.00
2019-02-25T18:09:40.047Z,7.90
2019-02-25T18:12:08.577Z,7.90
2019-02-25T18:14:37.034Z,7.80
2019-02-25T18:17:05.958Z,7.80
2019-02-25T18:19:35.125Z,7.80
2019-02-25T18:22:02.275Z,7.70
2019-02-25T18:24:32.365Z,7.60
2019-02-25T18:26:57.803Z,7.60
2019-02-25T18:29:25.228Z,7.50
2019-02-25T18:31:52.720Z,7.60
2019-02-25T18:34:19.610Z,7.40
2019-02-25T18:36:48.480Z,7.70
2019-02-25T18:39:17.244Z,7.50
2019-02-25T18:41:45.727Z,7.50
2019-02-25T18:44:13.521Z,7.10
2019-02-25T18:46:46.117Z,7.00
2019-02-25T18:49:13.769Z,7.10
2019-02-25T18:51:40.427Z,6.80
2019-02-25T18:54:07.213Z,6.80
2019-02-25T18:56:35.465Z,6.90
2019-02-25T18:59:08.776Z,7.00
2019-02-25T19:01:30.509Z,6.90
2019-02-25T19:03:58.879Z,6.70
2019-02-25T19:06:25.670Z,6.50
2019-02-25T19:08:53.789Z,6.40
2019-02-25T19:11:21.288Z,6.30
2019-02-25T19:13:51.672Z,6.20
2019-02-25T19:16:19.764Z,6.20
2019-02-25T19:18:48.936Z,6.10
2019-02-25T19:21:16.010Z,6.00
2019-02-25T19:23:44.063Z,6.40
2019-02-25T19:26:12.990Z,5.90
2019-02-25T19:28:44.013Z,5.80
2019-02-25T19:31:11.061Z,5.80
2019-02-25T19:33:38.212Z,5.60
2019-02-25T19:36:05.652Z,5.70
2019-02-25T19:38:36.029Z,5.40
2019-02-25T19:41:03.359Z,5.50
2019-02-25T19:43:30.197Z,5.50
2019-02-25T19:45:58.988Z,5.60
2019-02-25T19:48:29.004Z,5.60
2019-02-25T19:51:00.905Z,5.50
2019-02-25T19:53:31.411Z,5.50
2019-02-25T19:55:57.420Z,5.50
2019-02-25T19:58:26.387Z,5.50
2019-02-25T20:01:00.754Z,5.40
2019-02-25T20:03:24.910Z,5.40
2019-02-25T20:05:53.842Z,5.30
2019-02-25T20:08:23.258Z,5.20
2019-02-25T20:10:50.097Z,5.30
2019-02-25T20:13:17.201Z,5.30
2019-02-25T20:15:44.963Z,5.10
2019-02-25T20:18:13.999Z,5.00
2019-02-25T20:20:43.573Z,5.10
2019-02-25T20:23:12.559Z,4.90
2019-02-25T20:25:42.395Z,4.80
2019-02-25T20:28:08.397Z,4.70
2019-02-25T20:30:35.548Z,4.60
2019-02-25T20:33:06.328Z,4.70
2019-02-25T20:35:33.332Z,4.60
2019-02-25T20:38:02.688Z,4.60
2019-02-25T20:40:32.946Z,4.60
2019-02-25T20:43:03.131Z,4.60
2019-02-25T20:45:33.254Z,4.70
2019-02-25T20:48:03.826Z,4.70
2019-02-25T20:50:30.888Z,4.60
2019-02-25T20:52:59.113Z,4.70
2019-02-25T20:55:27.161Z,4.60
2019-02-25T20:57:55.401Z,4.60
2019-02-25T21:00:24.000Z,4.60
2019-02-25T21:02:50.932Z,4.60
2019-02-25T21:05:20.141Z,4.50
2019-02-25T21:07:48.152Z,4.40
2019-02-25T21:10:16.993Z,4.30
2019-02-25T21:12:44.143Z,4.30
2019-02-25T21:15:13.080Z,4.30
2019-02-25T21:17:40.234Z,4.20
2019-02-25T21:20:16.085Z,4.00
2019-02-25T21:22:44.508Z,3.90
2019-02-25T21:25:16.484Z,3.90
2019-02-25T21:27:43.635Z,4.00
2019-02-25T21:30:19.390Z,4.00
2019-02-25T21:32:47.514Z,4.00
2019-02-25T21:35:19.219Z,3.90
2019-02-25T21:40:16.340Z,3.90
2019-02-25T21:42:44.322Z,3.70
2019-02-25T21:45:17.962Z,3.80
2019-02-25T21:47:50.064Z,3.70
2019-02-25T22:02:41.464Z,3.60
2019-02-25T22:05:11.918Z,3.40
2019-02-25T22:07:38.908Z,3.40
2019-02-25T22:10:13.426Z,3.30
2019-02-25T22:12:44.308Z,3.30
2019-02-25T22:15:18.033Z,3.20
2019-02-25T22:17:47.865Z,3.20
2019-02-25T22:20:18.486Z,3.30
2019-02-25T22:22:49.515Z,3.30
2019-02-25T22:25:18.673Z,3.30
2019-02-25T22:27:45.687Z,3.30
2019-02-25T22:30:17.666Z,3.30
2019-02-25T22:32:46.354Z,3.40
2019-02-25T22:35:15.083Z,3.40
2019-02-25T22:37:46.860Z,3.30
2019-02-25T22:40:16.920Z,3.20
2019-02-25T22:42:44.172Z,3.30
2019-02-25T22:45:16.194Z,3.40
2019-02-25T22:47:42.774Z,3.30
2019-02-25T22:50:13.441Z,3.30
2019-02-25T22:52:40.033Z,3.20
2019-02-25T22:55:10.091Z,3.20
2019-02-25T22:57:37.520Z,3.20
2019-02-25T23:00:31.097Z,3.20
2019-02-25T23:02:58.242Z,3.10
2019-02-25T23:05:25.559Z,3.10
2019-02-25T23:07:54.694Z,3.10
2019-02-25T23:10:22.372Z,3.00
2019-02-25T23:12:53.602Z,3.10
2019-02-25T23:15:22.816Z,3.00
2019-02-25T23:17:49.746Z,3.00
2019-02-25T23:20:19.354Z,2.90
2019-02-25T23:22:46.203Z,2.90
2019-02-25T23:25:13.397Z,2.80
2019-02-25T23:27:40.193Z,2.80
2019-02-25T23:30:11.972Z,2.80
2019-02-25T23:35:09.442Z,2.60
2019-02-25T23:37:45.147Z,2.60
2019-02-25T23:40:12.510Z,2.70
2019-02-25T23:42:41.955Z,2.80
2019-02-25T23:45:12.970Z,2.80
2019-02-25T23:47:40.745Z,2.60
2019-02-25T23:50:13.727Z,2.50
2019-02-25T23:55:14.275Z,2.50
2019-02-25T23:57:40.408Z,2.40
